Чистоозерская

Карта отелей и гостиниц, располагающихся рядом с аэропортом Чистоозерская :

Чистоозерская
Усмань
Липецкая область 52° 1' 31.7388" N, 39° 40' 50.52" E
Код аэродрома ИКАО
UUOU
Код аэродрома RU
УУОУ
Координаты
N52.02548° E039.68070°
Превышение над уровнем моря
162
Основная полоса
08/26
Курс магнитный
077,2/257,2
Длина основной ВПП
740
Ширина основной ВПП
100
Покрытие основной ВПП
Нетвёрдое (грунт)
Освещение ВПП
Нет
Тип: 
Аэродром
Класс аэродрома: 
Принадлежность: 
АОН
Статус: 
Недействующий
Сайт: 
www.polet.ru
E-mail аэродрома: 
BraginaEV@polet.ru
Страна: 
Россия
Регион: 
Липецкая область
Город: 
Усмань
Дополнительная информация: 
Оператор: ЗАО "Авиационная компания "Полет". Нкр.=(200)м. АИ-95: 35р./л, пос./взлет: 500р. Полёты в районе ПП согласованы с ФГУ «Воронежский государственный биосферный заповедник», в интересах которого установлена ЗОП UUR321 (GND-500м AGL) [к/с]. АНП зарегистрирован в МТУ ВТ ЦР 17 апр 2012 ЦПЗ-235.

Найти трансфер

С помощью этой формы Вы можете найти трансфер из аэропорта Чистоозерская в город, аэропорт или вокзал:

Карта места

Javascript is required to view this map.

Погода в аэропортах:

Авиационная погода в Перми

Регион: 
Погода METAR: 
USPP 171530Z 30002MPS 9999 -RA BKN038 06/06 Q1009 R21/290150 TEMPO 3000 -RA BKN005 RMK QFE746
Время наблюдения
2021-09-17T15:30:00Z
Температура C
6.0
Точка росы
6.0
Направление ветра
300
Скорость ветра (узлы)
4
Метео видимость
6.21
Явления погоды
-RA
Условия полета
VFR
Аэропорт подробнее: 

Авиационная погода в Курске

Погода METAR: 
UUOK 171530Z 08004MPS 9999 -RA NSC 10/08 Q1015 R12/290050 NOSIG RMK QFE743/0991
Время наблюдения
2021-09-17T15:30:00Z
Температура C
10.0
Точка росы
8.0
Направление ветра
80
Скорость ветра (узлы)
8
Метео видимость
6.21
Явления погоды
-RA
Условия полета
VFR
Аэропорт подробнее: 

Авиационная погода в Самаре

Регион: 
Погода METAR: 
UWWW 171530Z 29002MPS 270V330 9999 -RA NSC 07/02 Q1015 R33/190055 NOSIG RMK QFE751/1001
Время наблюдения
2021-09-17T15:30:00Z
Температура C
7.0
Точка росы
2.0
Направление ветра
290
Скорость ветра (узлы)
4
Метео видимость
6.21
Явления погоды
-RA
Условия полета
VFR
Аэропорт подробнее: 

Авиационная погода в Тбилиси

Регион: 
Погода METAR: 
UGTB 171530Z 33017KT 9999 -SHRA SCT055CB 18/15 Q1015 R31L/19//60 NOSIG
Время наблюдения
2021-09-17T15:30:00Z
Температура C
18.0
Точка росы
15.0
Направление ветра
330
Скорость ветра (узлы)
17
Метео видимость
6.21
Явления погоды
-SHRA
Условия полета
VFR